createdAt,value
2023-03-12T00:01:22.230Z,7.80
2023-03-12T00:06:30.243Z,10.98
2023-03-12T00:11:36.786Z,8.20
2023-03-12T00:16:43.591Z,9.95
2023-03-12T00:21:51.885Z,8.48
2023-03-12T00:26:58.615Z,7.53
2023-03-12T00:32:05.310Z,8.55
2023-03-12T00:37:13.439Z,6.63
2023-03-12T00:42:21.102Z,9.60
2023-03-12T00:47:27.615Z,9.48
2023-03-12T00:52:35.776Z,7.65
2023-03-12T00:57:42.373Z,6.13
2023-03-12T01:02:49.045Z,10.38
2023-03-12T01:07:57.146Z,7.43
2023-03-12T01:13:03.814Z,10.63
2023-03-12T01:18:10.350Z,8.57
2023-03-12T01:23:18.538Z,8.30
2023-03-12T01:28:26.083Z,8.18
2023-03-12T01:33:32.557Z,7.05
2023-03-12T01:38:40.515Z,7.72
2023-03-12T01:43:47.448Z,8.40
2023-03-12T01:49:01.384Z,7.68
2023-03-12T01:54:17.480Z,6.53
2023-03-12T01:59:32.281Z,8.15
2023-03-12T02:04:41.673Z,7.70
2023-03-12T02:09:52.646Z,9.43
2023-03-12T02:14:59.487Z,10.93
2023-03-12T02:20:18.700Z,8.57
2023-03-12T02:25:37.055Z,10.48
2023-03-12T02:30:48.076Z,12.57
2023-03-12T02:35:56.406Z,12.02
2023-03-12T02:41:15.404Z,10.07
2023-03-12T02:46:23.131Z,10.10
2023-03-12T02:51:29.980Z,9.63
2023-03-12T02:56:38.650Z,8.35
2023-03-12T03:01:45.850Z,8.27
2023-03-12T03:06:52.794Z,8.95
2023-03-12T03:12:01.179Z,8.75
2023-03-12T03:17:10.295Z,8.57
2023-03-12T03:22:16.975Z,7.82
2023-03-12T03:27:24.983Z,7.10
2023-03-12T03:32:32.954Z,7.40
2023-03-12T03:37:39.768Z,7.60
2023-03-12T03:42:47.946Z,6.90
2023-03-12T03:47:54.959Z,5.95
2023-03-12T03:53:01.760Z,7.82
2023-03-12T03:58:10.205Z,8.35
2023-03-12T04:03:18.692Z,8.02
2023-03-12T04:08:25.358Z,9.05
2023-03-12T04:13:33.230Z,7.65
2023-03-12T04:18:40.669Z,6.28
2023-03-12T04:23:47.801Z,10.13
2023-03-12T04:28:56.882Z,5.95
2023-03-12T04:34:04.251Z,6.65
2023-03-12T04:39:11.271Z,5.45
2023-03-12T04:44:19.426Z,8.10
2023-03-12T04:49:26.134Z,4.63
2023-03-12T04:54:34.565Z,4.80
2023-03-12T04:59:43.094Z,6.22
2023-03-12T05:04:49.777Z,7.90
2023-03-12T05:09:56.839Z,6.38
2023-03-12T05:15:05.480Z,7.00
2023-03-12T05:20:14.168Z,6.20
2023-03-12T05:25:21.517Z,10.80
2023-03-12T05:30:29.304Z,4.18
2023-03-12T05:35:35.878Z,4.78
2023-03-12T05:40:42.284Z,5.82
2023-03-12T05:45:51.397Z,8.13
2023-03-12T05:50:58.827Z,3.63
2023-03-12T05:56:07.374Z,3.72
2023-03-12T06:01:18.331Z,5.25
2023-03-12T06:06:25.349Z,10.18
2023-03-12T06:11:33.726Z,6.73
2023-03-12T06:16:41.889Z,4.47
2023-03-12T06:21:49.049Z,3.27
2023-03-12T06:26:56.138Z,5.05
2023-03-12T06:32:04.260Z,4.97
2023-03-12T06:37:12.113Z,3.70
2023-03-12T06:42:20.064Z,3.47
2023-03-12T06:47:28.089Z,5.10
2023-03-12T06:52:34.741Z,8.67
2023-03-12T06:57:41.314Z,4.00
2023-03-12T07:02:49.400Z,4.18
2023-03-12T07:07:58.525Z,2.45
2023-03-12T07:13:05.012Z,3.08
2023-03-12T07:18:14.726Z,5.55
2023-03-12T07:23:21.582Z,4.25
2023-03-12T07:28:28.260Z,3.33
2023-03-12T07:33:37.001Z,4.28
2023-03-12T07:38:43.735Z,6.15
2023-03-12T07:43:50.215Z,3.05
2023-03-12T07:48:58.069Z,4.28
2023-03-12T07:54:04.666Z,7.50
2023-03-12T07:59:11.448Z,2.85
2023-03-12T08:04:19.897Z,3.55
2023-03-12T08:09:29.801Z,6.55
2023-03-12T08:14:37.221Z,2.80
2023-03-12T08:19:48.550Z,1.73
2023-03-12T08:24:55.490Z,5.13
2023-03-12T08:30:02.503Z,2.45
2023-03-12T08:35:11.890Z,3.15
2023-03-12T08:40:19.155Z,4.65
2023-03-12T08:45:25.731Z,4.10
2023-03-12T08:50:33.731Z,3.00
2023-03-12T08:55:40.194Z,4.97
2023-03-12T09:00:46.532Z,2.40
2023-03-12T09:06:06.630Z,4.45
2023-03-12T09:11:14.958Z,4.00
2023-03-12T09:16:21.604Z,5.00
2023-03-12T09:21:31.648Z,2.33
2023-03-12T09:26:38.397Z,3.20
2023-03-12T09:31:44.977Z,3.28
2023-03-12T09:36:52.887Z,3.60
2023-03-12T09:41:59.576Z,2.17
2023-03-12T09:47:12.957Z,3.22
2023-03-12T09:52:30.063Z,2.08
2023-03-12T09:57:37.074Z,2.40
2023-03-12T10:03:20.072Z,3.35
2023-03-12T10:08:41.992Z,6.20
2023-03-12T10:14:23.365Z,4.50
2023-03-12T10:19:57.325Z,3.45
2023-03-12T10:25:18.233Z,6.80
2023-03-12T10:30:28.616Z,5.13
2023-03-12T10:35:35.658Z,2.95
2023-03-12T10:40:44.310Z,3.30
2023-03-12T10:46:04.806Z,3.33
2023-03-12T10:51:15.419Z,3.53
2023-03-12T11:01:32.815Z,3.20
2023-03-12T11:06:39.720Z,2.00
2023-03-12T11:11:50.352Z,4.93
2023-03-12T11:16:58.567Z,5.70
2023-03-12T11:22:11.883Z,6.15
2023-03-12T11:27:32.635Z,7.43
2023-03-12T11:32:43.452Z,2.38
2023-03-12T11:38:05.198Z,4.13
2023-03-12T11:43:50.516Z,3.42
2023-03-12T11:49:13.306Z,3.50
2023-03-12T11:55:00.730Z,4.63
2023-03-12T12:00:18.817Z,2.22
2023-03-12T12:05:40.105Z,2.47
2023-03-12T12:11:00.355Z,1.67
2023-03-12T12:16:42.296Z,4.82
2023-03-12T12:22:05.324Z,4.03
2023-03-12T12:27:22.466Z,5.63
2023-03-12T12:32:48.367Z,5.00
2023-03-12T12:38:01.713Z,4.50
2023-03-12T12:43:25.687Z,2.95
2023-03-12T12:48:38.528Z,3.50
2023-03-12T12:53:55.518Z,3.42
2023-03-12T12:59:26.786Z,2.50
2023-03-12T13:04:39.210Z,3.22
2023-03-12T13:09:48.340Z,3.95
2023-03-12T13:14:57.914Z,3.58
2023-03-12T13:20:21.556Z,3.72
2023-03-12T13:25:52.882Z,2.80
2023-03-12T13:31:01.970Z,5.45
2023-03-12T13:41:38.517Z,4.85
2023-03-12T13:46:49.341Z,4.20
2023-03-12T13:52:25.864Z,5.93
2023-03-12T13:57:41.224Z,5.90
2023-03-12T14:03:00.588Z,4.15
2023-03-12T14:08:30.664Z,4.68
2023-03-12T14:14:06.268Z,5.00
2023-03-12T14:19:16.473Z,6.63
2023-03-12T14:24:33.274Z,3.15
2023-03-12T14:29:45.487Z,3.60
2023-03-12T14:34:59.838Z,6.10
2023-03-12T14:40:22.551Z,3.10
2023-03-12T14:45:30.479Z,8.00
2023-03-12T14:56:06.233Z,3.03
2023-03-12T15:01:19.455Z,6.72
2023-03-12T15:06:33.427Z,3.15
2023-03-12T15:11:43.367Z,5.05
2023-03-12T15:16:55.052Z,4.72
2023-03-12T15:22:03.754Z,4.65
2023-03-12T15:27:35.337Z,5.28
2023-03-12T15:32:43.422Z,6.43
2023-03-12T15:37:55.872Z,6.00
2023-03-12T15:43:08.051Z,5.53
2023-03-12T15:48:28.285Z,5.07
2023-03-12T15:53:40.835Z,3.35
2023-03-12T15:59:00.425Z,5.65
2023-03-12T16:04:11.556Z,4.82
2023-03-12T16:09:27.175Z,5.32
2023-03-12T16:14:37.606Z,7.03
2023-03-12T16:19:47.118Z,6.25
2023-03-12T16:24:57.951Z,7.63
2023-03-12T16:30:15.333Z,8.73
2023-03-12T16:35:24.253Z,4.38
2023-03-12T16:45:52.541Z,7.45
2023-03-12T16:51:07.671Z,6.90
2023-03-12T16:56:20.613Z,5.47
2023-03-12T17:01:30.653Z,4.05
2023-03-12T17:06:41.130Z,9.25
2023-03-12T17:11:51.872Z,6.05
2023-03-12T17:17:02.978Z,7.25
2023-03-12T17:22:12.285Z,5.57
2023-03-12T17:27:22.224Z,4.28
2023-03-12T17:32:34.437Z,5.07
2023-03-12T17:37:44.222Z,5.03
2023-03-12T17:42:54.469Z,6.70
2023-03-12T17:48:04.942Z,15.38
2023-03-12T17:53:16.881Z,29.58
2023-03-12T17:58:27.253Z,64.53
2023-03-12T18:03:39.679Z,73.57
2023-03-12T18:08:48.738Z,60.97
2023-03-12T18:13:56.921Z,46.85
2023-03-12T18:19:06.727Z,40.83
2023-03-12T18:24:14.905Z,16.30
2023-03-12T18:29:24.465Z,12.10
2023-03-12T18:34:36.458Z,15.63
2023-03-12T18:39:47.161Z,21.75
2023-03-12T18:45:00.186Z,17.48
2023-03-12T18:50:15.678Z,19.92
2023-03-12T18:55:26.669Z,29.20
2023-03-12T19:00:36.683Z,25.83
2023-03-12T19:05:49.454Z,27.25
2023-03-12T19:11:00.573Z,25.45
2023-03-12T19:16:18.780Z,20.83
2023-03-12T19:21:39.584Z,13.40
2023-03-12T19:26:49.946Z,12.52
2023-03-12T19:32:00.985Z,13.13
2023-03-12T19:37:15.759Z,14.07
2023-03-12T19:42:26.930Z,14.05
2023-03-12T19:47:37.439Z,14.52
2023-03-12T19:52:50.141Z,10.85
2023-03-12T19:58:03.852Z,13.77
2023-03-12T20:03:15.200Z,12.68
2023-03-12T20:08:30.328Z,14.57
2023-03-12T20:13:41.732Z,17.17
2023-03-12T20:18:52.883Z,21.13
2023-03-12T20:24:07.155Z,28.42
2023-03-12T20:29:17.811Z,27.88
2023-03-12T20:34:28.491Z,32.78
2023-03-12T20:39:49.620Z,142.10
2023-03-12T20:45:00.404Z,175.32
2023-03-12T20:55:21.665Z,146.23
2023-03-12T21:00:31.285Z,177.52
2023-03-12T21:05:41.352Z,167.35
2023-03-12T21:10:53.095Z,153.93
2023-03-12T21:16:05.056Z,150.15
2023-03-12T21:21:15.024Z,145.15
2023-03-12T21:26:23.939Z,78.55
2023-03-12T21:31:32.797Z,83.03
2023-03-12T21:36:41.197Z,81.30
2023-03-12T21:41:50.433Z,78.15
2023-03-12T21:52:03.446Z,91.43
2023-03-12T21:57:11.641Z,79.60
2023-03-12T22:02:18.325Z,65.33
2023-03-12T22:07:24.956Z,72.18
2023-03-12T22:12:33.079Z,66.50
2023-03-12T22:17:39.668Z,63.40
2023-03-12T22:22:46.363Z,76.32
2023-03-12T22:27:54.689Z,81.30
2023-03-12T22:33:01.062Z,75.37
2023-03-12T22:38:07.563Z,73.80
2023-03-12T22:43:15.868Z,65.97
2023-03-12T22:48:22.516Z,60.35
2023-03-12T22:53:29.156Z,63.90
2023-03-12T22:58:38.047Z,64.95
2023-03-12T23:03:46.302Z,65.90
2023-03-12T23:08:52.963Z,59.05
2023-03-12T23:14:00.755Z,63.22
2023-03-12T23:19:07.271Z,55.95
2023-03-12T23:24:13.556Z,53.83
2023-03-12T23:29:21.546Z,47.78
2023-03-12T23:34:28.585Z,37.97
2023-03-12T23:39:44.980Z,44.38
2023-03-12T23:44:59.887Z,28.38
2023-03-12T23:50:07.777Z,28.23
2023-03-12T23:55:14.573Z,25.58
